Time;durP1;ratioP1;P1;durP2;ratioP2;P2;SDS_P1;SDS_P2;PMS_P1;PMS_P2;Temp;Humidity;BMP_temperature;BMP_pressure;BME280_temperature;BME280_humidity;BME280_pressure;Samples;Min_cycle;Max_cycle;Signal;HPM_P1;HPM_P2
2021/11/01 00:01:43;;;;;;;15.90;11.95;;;14.30;96.60;;;;;;5087949;28;20458;-51
2021/11/01 00:04:09;;;;;;;17.55;11.10;;;14.30;96.70;;;;;;5087796;28;20091;-48
2021/11/01 00:06:34;;;;;;;18.08;12.18;;;14.30;96.30;;;;;;5086202;28;20440;-49
2021/11/01 00:09:00;;;;;;;16.15;11.57;;;14.30;96.00;;;;;;5086763;28;20059;-50
2021/11/01 00:11:26;;;;;;;16.63;11.88;;;14.30;96.00;;;;;;5087626;28;20047;-51
2021/11/01 00:13:53;;;;;;;18.88;13.05;;;14.30;96.00;;;;;;5087896;28;20028;-49
2021/11/01 00:16:19;;;;;;;17.88;12.45;;;14.30;96.40;;;;;;5087353;28;20016;-49
2021/11/01 00:18:44;;;;;;;16.85;11.60;;;14.30;96.00;;;;;;5087076;28;20020;-48
2021/11/01 00:21:10;;;;;;;17.85;12.57;;;14.30;96.00;;;;;;5086131;28;20039;-49
2021/11/01 00:23:36;;;;;;;19.02;12.40;;;14.30;96.10;;;;;;5087707;28;20024;-51
2021/11/01 00:26:02;;;;;;;19.48;13.32;;;14.30;96.10;;;;;;5069084;28;20086;-51
2021/11/01 00:28:27;;;;;;;17.63;12.98;;;14.30;96.00;;;;;;5081290;28;20035;-49
2021/11/01 00:30:57;;;;;;;14.50;10.73;;;14.30;96.10;;;;;;5087108;28;20250;-50
2021/11/01 00:33:24;;;;;;;13.50;10.35;;;14.20;96.20;;;;;;5086966;28;20032;-49
2021/11/01 00:35:50;;;;;;;14.35;11.18;;;14.30;95.50;;;;;;5087327;28;20039;-49
2021/11/01 00:38:16;;;;;;;13.35;10.05;;;14.40;95.30;;;;;;5086577;28;20492;-51
2021/11/01 00:40:42;;;;;;;16.50;10.55;;;14.40;94.90;;;;;;5087098;28;20024;-48
2021/11/01 00:43:08;;;;;;;15.38;10.32;;;14.40;95.30;;;;;;5086658;28;20062;-50
2021/11/01 00:45:34;;;;;;;13.55;10.40;;;14.40;95.40;;;;;;5087466;28;20282;-49
2021/11/01 00:48:00;;;;;;;14.15;10.45;;;14.40;95.30;;;;;;5087499;28;20115;-48
2021/11/01 00:50:26;;;;;;;15.93;9.88;;;14.40;95.30;;;;;;5087192;28;20533;-48
2021/11/01 00:52:51;;;;;;;12.50;9.65;;;14.50;95.40;;;;;;5087488;28;20050;-48
2021/11/01 00:55:35;;;;;;;13.40;10.07;;;14.40;95.50;;;;;;5074034;28;20032;-50
2021/11/01 00:58:01;;;;;;;16.80;10.45;;;14.40;95.50;;;;;;5070893;28;20474;-47
2021/11/01 01:00:29;;;;;;;17.33;10.02;;;14.40;95.80;;;;;;5087351;28;20035;-49
2021/11/01 01:02:55;;;;;;;13.88;9.63;;;14.40;96.10;;;;;;5087137;28;20095;-48
2021/11/01 01:05:20;;;;;;;12.30;9.18;;;14.40;96.80;;;;;;5086983;28;20345;-51
2021/11/01 01:07:46;;;;;;;11.45;8.70;;;14.40;96.70;;;;;;5085106;28;20115;-47
2021/11/01 01:10:13;;;;;;;11.90;8.80;;;14.50;97.30;;;;;;5086973;28;20028;-51
2021/11/01 01:12:42;;;;;;;9.93;7.63;;;14.50;97.50;;;;;;5087474;28;20036;-51
2021/11/01 01:15:11;;;;;;;12.30;7.72;;;14.50;97.60;;;;;;5085788;28;20481;-49
2021/11/01 01:17:38;;;;;;;10.48;7.95;;;14.50;98.10;;;;;;5086556;28;20063;-50
2021/11/01 01:20:08;;;;;;;8.98;7.10;;;14.50;98.20;;;;;;5087281;28;20070;-51
2021/11/01 01:22:34;;;;;;;10.05;6.95;;;14.50;98.80;;;;;;5087117;28;20024;-52
2021/11/01 01:25:17;;;;;;;8.07;5.97;;;14.50;99.20;;;;;;5074899;28;20028;-51
2021/11/01 01:27:43;;;;;;;7.35;6.22;;;14.50;99.90;;;;;;5080010;28;20085;-51
2021/11/01 01:30:11;;;;;;;7.47;5.40;;;14.60;99.90;;;;;;5090213;28;20103;-51
2021/11/01 01:32:37;;;;;;;8.40;5.32;;;14.60;99.90;;;;;;5089148;28;20417;-50
2021/11/01 01:35:03;;;;;;;6.50;4.80;;;14.70;99.90;;;;;;5090785;28;20023;-49
2021/11/01 01:37:28;;;;;;;7.13;4.78;;;14.70;99.90;;;;;;5089617;28;20028;-51
2021/11/01 01:39:54;;;;;;;5.00;4.50;;;14.70;99.90;;;;;;5089313;28;20123;-51
2021/11/01 01:42:19;;;;;;;5.60;3.80;;;14.70;99.90;;;;;;5090109;28;20075;-51
2021/11/01 01:44:45;;;;;;;4.43;3.40;;;14.70;99.90;;;;;;5090442;28;20476;-51
2021/11/01 01:47:10;;;;;;;4.35;3.08;;;14.80;99.90;;;;;;5090155;28;20032;-48
2021/11/01 01:49:37;;;;;;;4.88;3.38;;;14.80;99.90;;;;;;5090538;28;20397;-48
2021/11/01 01:52:04;;;;;;;4.22;2.60;;;14.80;99.90;;;;;;5090480;28;20039;-52
2021/11/01 01:54:30;;;;;;;3.00;2.70;;;14.80;99.90;;;;;;5077771;28;20053;-51
2021/11/01 01:56:56;;;;;;;3.03;2.08;;;14.90;99.90;;;;;;5080985;28;20052;-51
2021/11/01 01:59:22;;;;;;;3.45;2.45;;;14.90;99.90;;;;;;5089162;28;20412;-51
2021/11/01 02:01:48;;;;;;;2.67;2.00;;;14.90;99.90;;;;;;5090128;28;20031;-50
2021/11/01 02:04:26;;;;;;;2.40;1.80;;;14.90;99.90;;;;;;5090226;28;20020;-50
2021/11/01 02:07:32;;;;;;;3.08;1.80;;;14.90;99.90;;;;;;5089886;28;20167;-50
2021/11/01 02:10:06;;;;;;;5.05;1.88;;;14.90;99.90;;;;;;5089572;28;20115;-50
2021/11/01 02:12:39;;;;;;;2.67;1.58;;;14.90;99.90;;;;;;5089798;28;20348;-48
2021/11/01 02:15:20;;;;;;;1.95;1.52;;;14.90;99.90;;;;;;5089235;28;20381;-51
2021/11/01 02:17:49;;;;;;;2.15;1.13;;;14.80;99.90;;;;;;5088662;28;20024;-50
2021/11/01 02:20:42;;;;;;;1.55;1.08;;;14.80;99.90;;;;;;5089682;28;20032;-49
2021/11/01 02:23:13;;;;;;;2.10;1.30;;;14.90;99.90;;;;;;5070228;28;20040;-52
2021/11/01 02:25:39;;;;;;;3.08;1.33;;;14.80;99.90;;;;;;5078394;28;20178;-51
2021/11/01 02:28:05;;;;;;;2.65;1.27;;;14.80;99.90;;;;;;5080148;28;20032;-51
2021/11/01 02:30:31;;;;;;;1.20;0.95;;;14.90;99.90;;;;;;5088039;28;20191;-50
2021/11/01 02:32:57;;;;;;;2.33;1.35;;;14.80;99.90;;;;;;5087615;28;20505;-49
2021/11/01 02:35:23;;;;;;;2.35;1.10;;;14.80;99.90;;;;;;5089389;28;20470;-50
2021/11/01 02:37:49;;;;;;;0.90;0.70;;;14.80;99.90;;;;;;5089080;28;20036;-50
2021/11/01 02:40:14;;;;;;;2.25;1.20;;;14.80;99.90;;;;;;5088181;28;20028;-48
2021/11/01 02:42:40;;;;;;;1.38;1.02;;;14.70;99.90;;;;;;5089134;28;20158;-48
2021/11/01 02:45:09;;;;;;;1.80;1.10;;;14.70;99.90;;;;;;5088701;28;20293;-50
2021/11/01 02:47:35;;;;;;;1.10;1.00;;;14.70;99.90;;;;;;5088729;28;20020;-49
2021/11/01 02:50:05;;;;;;;4.15;1.05;;;14.70;99.90;;;;;;5087804;28;20470;-49
2021/11/01 02:52:31;;;;;;;0.85;0.70;;;14.70;99.90;;;;;;5087721;28;20886;-49
2021/11/01 02:54:57;;;;;;;1.80;0.90;;;14.60;99.90;;;;;;5078697;28;20577;-51
2021/11/01 02:57:23;;;;;;;1.15;0.82;;;14.60;99.90;;;;;;5080052;28;20020;-51
2021/11/01 02:59:49;;;;;;;1.65;0.80;;;14.60;99.90;;;;;;5087022;28;20016;-50
2021/11/01 03:02:17;;;;;;;1.38;0.80;;;14.60;99.90;;;;;;5087411;28;20033;-52
2021/11/01 03:04:43;;;;;;;1.30;0.90;;;14.50;99.90;;;;;;5088892;28;20110;-49
2021/11/01 03:07:10;;;;;;;7.93;1.00;;;14.50;99.90;;;;;;5088476;28;20031;-49
2021/11/01 03:09:40;;;;;;;2.47;0.50;;;14.40;99.90;;;;;;5088637;28;20055;-51
2021/11/01 03:12:08;;;;;;;3.03;0.88;;;14.40;99.90;;;;;;5088100;28;20028;-51
2021/11/01 03:14:45;;;;;;;5.25;0.70;;;14.40;99.90;;;;;;5088738;28;20028;-51
2021/11/01 03:17:13;;;;;;;1.15;0.80;;;14.40;99.90;;;;;;5087936;28;20505;-49
2021/11/01 03:19:42;;;;;;;3.38;0.93;;;14.30;99.90;;;;;;5088301;28;20024;-51
2021/11/01 03:22:09;;;;;;;1.98;0.85;;;14.30;99.90;;;;;;5088647;28;20055;-48
2021/11/01 03:24:37;;;;;;;2.30;0.88;;;14.30;99.90;;;;;;5078418;28;20501;-49
2021/11/01 03:27:06;;;;;;;5.13;0.90;;;14.20;99.90;;;;;;5078974;28;20028;-49
2021/11/01 03:29:33;;;;;;;3.50;0.70;;;14.20;99.90;;;;;;5088250;28;20035;-49
2021/11/01 03:32:04;;;;;;;2.55;1.13;;;14.10;99.90;;;;;;5087865;28;20036;-49
2021/11/01 03:34:31;;;;;;;4.05;1.63;;;14.10;99.90;;;;;;5088034;28;20085;-49
2021/11/01 03:37:04;;;;;;;4.65;1.00;;;14.10;99.90;;;;;;5087668;28;20032;-50
2021/11/01 03:39:31;;;;;;;3.60;1.25;;;14.00;99.90;;;;;;5087844;28;20024;-48
2021/11/01 03:41:57;;;;;;;3.42;1.00;;;14.00;99.90;;;;;;5087716;28;20369;-49
2021/11/01 03:44:28;;;;;;;3.05;1.02;;;13.90;99.90;;;;;;5087993;28;20129;-48
2021/11/01 03:46:56;;;;;;;7.13;1.70;;;13.90;99.90;;;;;;5087565;28;20038;-51
2021/11/01 03:49:28;;;;;;;5.93;1.63;;;13.90;99.90;;;;;;5087512;28;20023;-49
2021/11/01 03:52:09;;;;;;;4.25;1.23;;;13.80;99.90;;;;;;5088135;28;20437;-48
2021/11/01 03:54:35;;;;;;;;;;;13.80;99.90;;;;;;5070210;28;20101;-50
2021/11/01 03:57:01;;;;;;;5.63;1.67;;;13.70;99.90;;;;;;5057677;28;20320;-51
2021/11/01 03:59:27;;;;;;;5.45;1.65;;;13.70;99.90;;;;;;5055959;28;20489;-48
2021/11/01 04:01:53;;;;;;;7.18;1.35;;;13.70;99.90;;;;;;5055006;28;20497;-48
2021/11/01 04:04:19;;;;;;;6.32;1.58;;;13.60;99.90;;;;;;5056148;28;20060;-48
2021/11/01 04:06:45;;;;;;;7.60;2.35;;;13.60;99.90;;;;;;5055809;28;20176;-50
2021/11/01 04:09:13;;;;;;;8.07;1.52;;;13.50;99.90;;;;;;5055265;28;20090;-50
2021/11/01 04:11:43;;;;;;;9.63;1.80;;;13.50;99.90;;;;;;5055549;28;20028;-48
2021/11/01 04:14:23;;;;;;;8.02;1.90;;;13.50;99.90;;;;;;5056538;28;20548;-48
2021/11/01 04:16:55;;;;;;;7.78;2.15;;;13.40;99.90;;;;;;5056313;28;20078;-51
2021/11/01 04:21:53;;;;;;;11.93;2.10;;;13.40;99.90;;;;;;5067378;28;20023;-50
2021/11/01 04:24:20;;;;;;;11.18;2.50;;;13.40;99.90;;;;;;5065810;28;20051;-49
2021/11/01 04:26:48;;;;;;;10.80;2.65;;;13.30;99.90;;;;;;5070955;28;20517;-51
2021/11/01 04:29:13;;;;;;;13.15;3.03;;;13.30;99.90;;;;;;5084581;28;20047;-50
2021/11/01 04:31:42;;;;;;;11.30;2.25;;;13.30;99.90;;;;;;5066292;28;20091;-50
2021/11/01 04:34:15;;;;;;;11.63;2.60;;;13.30;99.90;;;;;;5054335;28;20478;-47
2021/11/01 04:36:41;;;;;;;11.25;2.47;;;13.30;99.90;;;;;;5046891;28;20029;-51
2021/11/01 04:44:46;;;;;;;7.00;2.60;;;13.10;99.90;;;;;;5067408;28;20082;-48
2021/11/01 04:55:15;;;;;;;14.80;2.45;;;13.00;99.90;;;;;;5067483;28;20043;-51
2021/11/01 04:57:41;;;;;;;11.13;2.60;;;13.00;99.90;;;;;;5078293;28;20012;-49
2021/11/01 05:00:08;;;;;;;14.27;3.13;;;13.00;99.90;;;;;;5087187;28;20020;-50
2021/11/01 05:02:35;;;;;;;10.90;2.50;;;13.00;99.90;;;;;;5088433;28;20520;-47
2021/11/01 05:05:02;;;;;;;9.75;2.30;;;13.00;99.90;;;;;;5090494;28;20020;-51
2021/11/01 05:07:28;;;;;;;10.13;2.00;;;13.00;99.90;;;;;;5090531;28;20076;-49
2021/11/01 05:10:04;;;;;;;9.52;2.95;;;13.00;99.90;;;;;;5092743;28;20028;-51
2021/11/01 05:12:35;;;;;;;19.88;3.83;;;13.00;99.90;;;;;;5091463;28;20024;-51
2021/11/01 05:15:16;;;;;;;11.23;2.30;;;13.00;99.90;;;;;;5091511;28;20072;-51
2021/11/01 05:17:56;;;;;;;7.13;1.98;;;13.00;99.90;;;;;;5090695;28;20047;-51
2021/11/01 05:20:39;;;;;;;11.35;2.47;;;13.00;99.90;;;;;;5092256;28;20051;-51
2021/11/01 05:23:13;;;;;;;10.85;2.30;;;13.00;99.90;;;;;;5092479;28;20065;-49
2021/11/01 05:25:43;;;;;;;9.25;2.58;;;12.90;99.90;;;;;;5085153;28;20031;-50
2021/11/01 05:31:09;;;;;;;10.50;2.40;;;13.00;99.90;;;;;;5092361;28;20123;-51
2021/11/01 05:33:53;;;;;;;7.75;2.65;;;12.90;99.90;;;;;;5092207;28;20016;-51
2021/11/01 05:36:19;;;;;;;12.73;2.38;;;13.00;99.90;;;;;;5091972;28;20099;-51
2021/11/01 05:38:45;;;;;;;8.43;2.70;;;12.90;99.90;;;;;;5090212;28;20384;-49
2021/11/01 05:41:10;;;;;;;17.17;2.85;;;12.90;99.90;;;;;;5071081;28;20111;-53
2021/11/01 05:43:36;;;;;;;11.10;2.92;;;12.80;99.90;;;;;;5070341;28;20137;-52
2021/11/01 05:46:02;;;;;;;8.68;2.50;;;12.80;99.90;;;;;;5071174;28;20070;-52
2021/11/01 05:48:28;;;;;;;8.77;3.20;;;12.80;99.90;;;;;;5070720;28;20028;-53
2021/11/01 05:50:54;;;;;;;15.45;4.22;;;12.70;99.90;;;;;;5071339;28;20036;-53
2021/11/01 05:53:40;;;;;;;14.98;2.83;;;12.60;99.90;;;;;;5071610;28;20032;-53
2021/11/01 05:56:20;;;;;;;13.20;2.42;;;12.60;99.90;;;;;;5075908;28;20013;-52
2021/11/01 05:59:05;;;;;;;8.05;2.45;;;12.60;99.90;;;;;;5089503;28;20099;-53
2021/11/01 06:06:58;;;;;;;22.67;3.55;;;12.40;99.90;;;;;;5091515;28;20389;-53
2021/11/01 06:14:34;;;;;;;12.02;3.03;;;12.20;99.90;;;;;;5091368;28;20080;-53
2021/11/01 06:17:00;;;;;;;7.63;2.92;;;12.20;99.90;;;;;;5077639;28;20470;-53
2021/11/01 06:19:26;;;;;;;16.95;3.13;;;12.20;99.90;;;;;;5063735;28;20045;-51
2021/11/01 06:21:52;;;;;;;23.05;4.47;;;12.10;99.90;;;;;;5065729;28;20976;-52
2021/11/01 06:25:05;;;;;;;17.85;3.50;;;12.00;99.90;;;;;;5075572;28;20033;-52
2021/11/01 06:27:08;;;;;;;12.50;3.40;;;12.00;99.90;;;;;;5064351;28;20478;-52
2021/11/01 06:29:45;;;;;;;8.70;2.87;;;11.90;99.90;;;;;;5068699;28;20020;-52
2021/11/01 06:32:18;;;;;;;13.02;3.05;;;11.90;99.90;;;;;;5083148;28;20570;-53
2021/11/01 06:43:12;;;;;;;18.20;2.72;;;11.60;99.90;;;;;;5062542;28;20091;-52
2021/11/01 06:56:59;;;;;;;20.40;4.32;;;11.50;99.90;;;;;;5068432;28;20016;-52
2021/11/01 07:18:01;;;;;;;18.08;3.67;;;11.20;99.90;;;;;;5052878;28;20075;-51
2021/11/01 07:23:29;;;;;;;18.77;2.72;;;11.20;99.90;;;;;;5063970;28;20707;-52
2021/11/01 08:20:56;;;;;;;10.57;2.33;;;11.30;99.90;;;;;;5061183;28;20111;-52
2021/11/01 08:23:44;;;;;;;7.78;2.10;;;11.20;99.90;;;;;;5072209;28;20028;-52
2021/11/01 08:40:25;;;;;;;7.05;1.90;;;11.30;99.90;;;;;;5061444;28;20515;-52
2021/11/01 08:51:28;;;;;;;12.57;2.05;;;11.40;99.90;;;;;;5057877;28;20581;-52
2021/11/01 09:02:35;;;;;;;8.98;2.10;;;11.50;99.90;;;;;;5051368;28;20028;-52
2021/11/01 09:26:20;;;;;;;12.30;2.20;;;11.90;99.90;;;;;;5084451;28;20070;-52
2021/11/01 09:28:59;;;;;;;8.02;1.83;;;11.90;99.90;;;;;;5075217;28;20016;-51
2021/11/01 09:37:03;;;;;;;6.90;1.70;;;12.10;99.90;;;;;;5029560;28;20482;-53
2021/11/01 09:42:14;;;;;;;7.45;1.98;;;12.30;99.90;;;;;;5051139;28;20063;-52
2021/11/01 09:44:40;;;;;;;6.40;1.73;;;12.40;99.90;;;;;;5051105;28;20021;-52
2021/11/01 09:47:06;;;;;;;6.65;1.58;;;12.40;99.90;;;;;;5050396;28;20043;-53
2021/11/01 09:49:33;;;;;;;10.27;2.42;;;12.40;99.90;;;;;;5063981;28;20033;-52
2021/11/01 09:52:02;;;;;;;9.30;1.85;;;12.40;99.90;;;;;;5072245;28;20024;-53
2021/11/01 09:54:30;;;;;;;6.50;1.73;;;12.50;99.90;;;;;;5070538;28;20520;-53
2021/11/01 09:57:03;;;;;;;3.60;1.30;;;12.70;99.90;;;;;;5069205;28;20028;-53
2021/11/01 09:59:41;;;;;;;7.72;1.92;;;13.20;99.90;;;;;;5067625;28;20470;-53
2021/11/01 10:02:13;;;;;;;7.53;2.22;;;13.40;99.90;;;;;;5065563;28;20016;-53
2021/11/01 10:04:42;;;;;;;6.43;1.90;;;13.50;99.90;;;;;;5068782;28;20033;-52
2021/11/01 10:09:41;;;;;;;8.32;1.67;;;13.50;99.90;;;;;;5062555;28;20047;-53
2021/11/01 10:12:31;;;;;;;7.28;2.00;;;13.50;99.90;;;;;;5053242;28;20040;-52
2021/11/01 10:17:32;;;;;;;13.32;2.45;;;13.50;99.90;;;;;;5058557;28;20119;-52
2021/11/01 10:18:01;;;;;;;8.68;2.00;;;13.50;99.90;;;;;;5069685;28;20039;-51
2021/11/01 10:20:30;;;;;;;9.23;1.98;;;13.20;99.90;;;;;;5050484;28;20035;-51
2021/11/01 10:22:55;;;;;;;6.03;1.67;;;13.00;99.90;;;;;;5073911;28;20026;-52
2021/11/01 10:25:23;;;;;;;6.10;2.08;;;13.10;99.90;;;;;;5075100;28;20506;-53
2021/11/01 10:27:56;;;;;;;7.35;2.17;;;13.00;99.90;;;;;;5079183;28;20063;-52
2021/11/01 10:30:30;;;;;;;8.95;1.67;;;13.10;99.90;;;;;;5089978;28;20020;-52
2021/11/01 10:32:59;;;;;;;8.50;1.80;;;13.10;99.90;;;;;;5050353;28;20029;-52
2021/11/01 10:35:30;;;;;;;8.05;1.88;;;13.10;99.90;;;;;;5056805;28;20021;-53
2021/11/01 10:41:10;;;;;;;8.73;1.45;;;13.30;99.90;;;;;;5050075;28;20032;-53
2021/11/01 11:13:55;;;;;;;8.43;1.55;;;13.40;99.90;;;;;;5069888;28;20082;-52
2021/11/01 11:16:42;;;;;;;5.43;1.30;;;13.60;99.90;;;;;;5051309;28;20025;-53
2021/11/01 11:22:12;;;;;;;5.83;1.30;;;13.60;99.90;;;;;;5057952;28;20032;-53
2021/11/01 11:24:58;;;;;;;7.67;1.67;;;13.40;99.90;;;;;;5072440;28;20278;-52
2021/11/01 11:27:52;;;;;;;6.15;1.40;;;13.40;99.90;;;;;;5072870;28;20208;-52
2021/11/01 11:39:16;;;;;;;7.68;1.83;;;13.20;99.90;;;;;;5074493;28;20063;-53
2021/11/01 11:48:23;;;;;;;5.75;1.70;;;13.40;99.90;;;;;;5067793;28;20035;-54
2021/11/01 11:50:51;;;;;;;7.80;1.80;;;13.50;99.90;;;;;;5049736;28;20056;-52
2021/11/01 11:53:19;;;;;;;5.22;1.35;;;13.50;99.90;;;;;;5059479;28;20321;-53
2021/11/01 11:56:11;;;;;;;6.28;1.70;;;13.50;99.90;;;;;;5069646;28;20025;-52
2021/11/01 11:58:43;;;;;;;6.53;1.60;;;13.50;99.90;;;;;;5075326;28;20023;-52
2021/11/01 12:01:26;;;;;;;6.20;1.48;;;13.60;99.90;;;;;;5080216;28;20078;-52
2021/11/01 12:03:57;;;;;;;6.43;1.80;;;13.80;99.90;;;;;;5049442;28;20025;-52
2021/11/01 12:06:45;;;;;;;9.27;2.80;;;13.80;99.90;;;;;;5056491;28;20020;-52
2021/11/01 12:09:15;;;;;;;7.07;1.63;;;13.80;99.90;;;;;;5071620;28;20047;-52
2021/11/01 12:12:18;;;;;;;5.30;1.67;;;13.80;99.90;;;;;;5044622;28;20036;-52
2021/11/01 12:17:24;;;;;;;6.30;1.88;;;13.80;99.90;;;;;;5047835;28;20106;-52
2021/11/01 12:19:49;;;;;;;7.10;1.30;;;13.90;99.90;;;;;;5062697;28;20028;-53
2021/11/01 12:22:26;;;;;;;7.57;1.52;;;13.90;99.90;;;;;;5060261;28;20475;-53
2021/11/01 12:24:55;;;;;;;6.93;1.30;;;13.90;99.90;;;;;;5068083;28;20221;-53
2021/11/01 12:27:20;;;;;;;7.68;2.08;;;13.90;99.90;;;;;;5069942;28;20039;-52
2021/11/01 12:29:50;;;;;;;5.63;1.63;;;13.90;99.90;;;;;;5083077;28;20044;-52
2021/11/01 12:32:16;;;;;;;8.68;1.63;;;13.90;99.90;;;;;;5074696;28;20490;-52
2021/11/01 12:34:59;;;;;;;4.20;1.33;;;13.90;99.90;;;;;;5068472;28;20090;-52
2021/11/01 12:37:31;;;;;;;5.00;1.42;;;14.00;99.90;;;;;;5066633;28;20032;-53
2021/11/01 12:40:17;;;;;;;6.82;1.52;;;14.10;99.90;;;;;;5067922;28;20035;-53
2021/11/01 12:43:01;;;;;;;7.35;1.58;;;14.10;99.90;;;;;;5068043;28;20024;-53
2021/11/01 12:48:30;;;;;;;5.28;1.45;;;13.90;99.90;;;;;;5050882;28;20086;-53
2021/11/01 12:57:24;;;;;;;7.15;1.50;;;13.90;99.90;;;;;;5070777;28;20510;-52
2021/11/01 12:59:48;;;;;;;5.80;1.92;;;13.80;99.90;;;;;;5052776;28;20522;-52
2021/11/01 13:02:16;;;;;;;9.75;1.80;;;13.70;99.90;;;;;;5060414;28;20089;-52
2021/11/01 13:04:49;;;;;;;3.60;1.67;;;13.60;99.90;;;;;;5062644;28;20386;-52
2021/11/01 13:09:58;;;;;;;4.93;1.73;;;13.70;99.90;;;;;;5058236;28;20150;-52
2021/11/01 13:18:07;;;;;;;4.13;1.15;;;14.80;99.90;;;;;;5062981;28;20021;-53
2021/11/01 13:20:36;;;;;;;7.43;1.55;;;14.90;99.90;;;;;;5071560;28;20089;-53
2021/11/01 13:23:02;;;;;;;8.55;1.95;;;15.00;99.90;;;;;;5056761;28;20071;-53
2021/11/01 13:38:51;;;;;;;4.10;1.58;;;14.50;99.90;;;;;;5071435;28;20539;-52
2021/11/01 13:41:29;;;;;;;4.45;1.20;;;14.50;99.90;;;;;;5067311;28;20043;-52
2021/11/01 13:44:13;;;;;;;6.28;1.42;;;14.60;99.90;;;;;;5051400;28;20025;-52
2021/11/01 13:46:55;;;;;;;6.97;1.65;;;14.50;99.90;;;;;;5059686;28;20029;-52
2021/11/01 13:49:22;;;;;;;4.38;1.45;;;14.30;99.90;;;;;;5071722;28;20039;-52
2021/11/01 13:51:50;;;;;;;6.40;1.50;;;14.40;99.90;;;;;;5073562;28;20050;-52
2021/11/01 13:56:46;;;;;;;6.00;1.33;;;14.30;99.90;;;;;;5077139;28;20067;-52
2021/11/01 14:02:10;;;;;;;6.65;1.60;;;14.10;99.90;;;;;;5059234;28;20025;-53
2021/11/01 14:16:18;;;;;;;8.23;1.83;;;14.10;99.90;;;;;;5058931;28;20044;-53
2021/11/01 14:57:52;;;;;;;4.30;1.45;;;13.70;99.90;;;;;;5071920;28;20076;-52
2021/11/01 15:06:46;;;;;;;9.68;2.58;;;13.50;99.90;;;;;;5090575;28;20035;-52
2021/11/01 15:13:57;;;;;;;4.63;1.30;;;13.30;99.90;;;;;;5089739;28;20089;-52
2021/11/01 15:19:07;;;;;;;6.30;1.67;;;13.20;99.90;;;;;;5088962;28;20032;-52
2021/11/01 15:24:15;;;;;;;5.63;1.50;;;13.10;99.90;;;;;;5065446;28;20140;-53
2021/11/01 15:31:02;;;;;;;5.90;1.80;;;13.00;99.90;;;;;;5066887;28;20039;-52
2021/11/01 15:35:42;;;;;;;6.45;1.58;;;12.90;99.90;;;;;;5069122;28;20032;-52
2021/11/01 16:16:39;;;;;;;7.93;1.65;;;12.50;99.90;;;;;;5067485;28;20095;-52
2021/11/01 16:19:05;;;;;;;6.30;2.00;;;12.40;99.90;;;;;;5065929;28;20025;-51
2021/11/01 16:21:32;;;;;;;3.50;1.70;;;12.30;99.90;;;;;;5067042;28;20020;-51
2021/11/01 16:23:57;;;;;;;1.90;1.30;;;12.20;99.90;;;;;;5066533;28;20478;-50
2021/11/01 16:26:27;;;;;;;3.72;1.30;;;12.20;99.90;;;;;;5069593;28;20115;-51
2021/11/01 16:29:06;;;;;;;7.50;1.52;;;12.10;99.90;;;;;;5078762;28;20363;-51
2021/11/01 16:31:41;;;;;;;3.75;1.50;;;12.10;99.90;;;;;;5087326;28;20016;-51
2021/11/01 16:34:13;;;;;;;8.50;2.00;;;12.00;99.90;;;;;;5086921;28;20036;-51
2021/11/01 16:39:19;;;;;;;4.38;1.80;;;12.00;99.90;;;;;;5086259;28;20039;-51
2021/11/01 16:41:47;;;;;;;7.63;2.47;;;11.90;99.90;;;;;;5086343;28;20118;-51
2021/11/01 16:44:27;;;;;;;5.15;2.03;;;11.80;99.90;;;;;;5078670;28;20029;-52
2021/11/01 16:46:53;;;;;;;6.68;1.70;;;11.80;99.90;;;;;;5057277;28;20028;-51
2021/11/01 16:49:20;;;;;;;5.15;1.95;;;11.80;99.90;;;;;;5064511;28;20025;-51
2021/11/01 16:51:47;;;;;;;8.25;2.03;;;11.80;99.90;;;;;;5065890;28;20255;-51
2021/11/01 16:54:16;;;;;;;4.78;1.98;;;11.70;99.90;;;;;;5066014;28;20031;-51
2021/11/01 16:59:47;;;;;;;4.63;1.75;;;11.70;99.90;;;;;;5073770;28;20089;-52
2021/11/01 17:04:45;;;;;;;5.30;1.33;;;11.60;99.90;;;;;;5071570;28;20029;-51
2021/11/01 17:24:06;;;;;;;4.57;1.45;;;11.40;99.90;;;;;;5071318;28;20402;-54
2021/11/01 17:30:00;;;;;;;6.88;1.70;;;11.40;99.90;;;;;;5079185;28;20031;-47
2021/11/01 17:35:45;;;;;;;8.40;2.75;;;11.30;99.90;;;;;;5091929;28;20492;-47
2021/11/01 18:41:22;;;;;;;7.80;2.22;;;10.70;99.90;;;;;;5083389;28;20032;-52
2021/11/01 18:51:55;;;;;;;8.38;2.40;;;10.60;99.90;;;;;;5069914;28;20405;-53
2021/11/01 18:54:27;;;;;;;14.20;3.00;;;10.60;99.90;;;;;;5069533;28;20108;-52
2021/11/01 18:56:57;;;;;;;6.05;2.85;;;10.60;99.90;;;;;;5074630;28;20027;-52
2021/11/01 18:59:25;;;;;;;8.98;2.50;;;10.60;99.90;;;;;;5084157;28;20023;-53
2021/11/01 19:02:16;;;;;;;8.52;2.45;;;10.60;99.90;;;;;;5089396;28;20032;-53
2021/11/01 19:04:48;;;;;;;;;;;10.60;99.90;;;;;;5089751;28;20591;-53
2021/11/01 19:07:28;;;;;;;6.90;2.17;;;10.60;99.90;;;;;;5089421;28;20383;-53
2021/11/01 19:10:09;;;;;;;9.93;2.53;;;10.60;99.90;;;;;;5089617;28;20020;-53
2021/11/01 19:13:23;;;;;;;10.85;2.70;;;10.60;99.90;;;;;;5089563;28;20052;-52
2021/11/01 20:05:22;;;;;;;6.05;2.55;;;10.10;99.90;;;;;;5049052;28;20213;-52
2021/11/01 20:13:40;;;;;;;12.65;3.45;;;10.00;99.90;;;;;;5048802;28;20118;-52
2021/11/01 20:16:29;;;;;;;8.27;3.30;;;10.00;99.90;;;;;;5048601;28;20108;-51
2021/11/01 21:24:31;;;;;;;7.93;3.78;;;10.00;99.90;;;;;;5014358;28;20462;-53
2021/11/01 21:26:21;;;;;;;10.60;3.00;;;9.80;99.90;;;;;;5083411;28;20035;-52
2021/11/01 21:28:47;;;;;;;8.18;2.72;;;9.90;99.90;;;;;;5079053;28;20050;-54
2021/11/01 21:31:14;;;;;;;7.78;2.45;;;9.90;99.90;;;;;;5087816;28;20111;-54
2021/11/01 21:33:39;;;;;;;8.90;2.65;;;9.90;99.90;;;;;;5088002;28;20020;-53
2021/11/01 21:36:06;;;;;;;11.80;3.15;;;9.90;99.90;;;;;;5088399;28;20070;-51
2021/11/01 21:38:32;;;;;;;15.75;3.22;;;9.90;99.90;;;;;;5087385;28;20261;-52
2021/11/01 21:40:58;;;;;;;5.53;2.42;;;9.90;99.90;;;;;;5087882;28;20119;-51
2021/11/01 21:43:23;;;;;;;8.90;3.40;;;9.90;99.90;;;;;;5087316;28;20031;-52
2021/11/01 21:45:50;;;;;;;8.48;2.55;;;9.90;99.90;;;;;;5091334;28;20020;-52
2021/11/01 21:48:15;;;;;;;5.68;2.70;;;9.90;99.90;;;;;;5050575;28;20490;-53
2021/11/01 21:50:46;;;;;;;5.90;3.05;;;9.80;99.90;;;;;;5051133;28;20033;-52
2021/11/01 21:53:12;;;;;;;;;;;9.80;99.90;;;;;;5051168;28;20021;-53
2021/11/01 21:55:38;;;;;;;7.32;2.70;;;9.80;99.90;;;;;;5053031;28;19939;-52
2021/11/01 22:19:32;;;;;;;6.28;2.88;;;9.40;99.90;;;;;;5069913;28;20024;-51
2021/11/01 22:22:30;;;;;;;6.50;3.13;;;9.40;99.90;;;;;;5060721;28;20048;-51
2021/11/01 22:32:54;;;;;;;12.20;3.75;;;9.30;99.90;;;;;;5058839;28;20040;-49
2021/11/01 22:40:54;;;;;;;9.82;3.30;;;9.30;99.90;;;;;;5059034;28;20044;-51
2021/11/01 22:56:48;;;;;;;5.40;2.90;;;9.60;99.90;;;;;;5066168;28;20039;-51
2021/11/01 22:59:14;;;;;;;6.47;2.72;;;9.70;99.90;;;;;;5083519;28;20051;-51
2021/11/01 23:01:41;;;;;;;10.25;3.30;;;9.70;99.90;;;;;;5090114;28;20016;-51
2021/11/01 23:29:14;;;;;;;5.00;2.40;;;9.70;99.90;;;;;;5089970;28;20194;-50
2021/11/01 23:31:39;;;;;;;8.18;3.03;;;9.80;99.90;;;;;;5089708;28;20421;-47
2021/11/01 23:34:09;;;;;;;8.63;2.92;;;9.80;99.90;;;;;;5089703;28;20030;-48
2021/11/01 23:36:36;;;;;;;8.27;2.75;;;9.80;99.90;;;;;;5089582;28;20022;-48
2021/11/01 23:39:03;;;;;;;8.90;2.85;;;9.70;99.90;;;;;;5088584;28;20039;-48
2021/11/01 23:41:28;;;;;;;6.65;2.50;;;9.70;99.90;;;;;;5087832;28;20016;-46
2021/11/01 23:43:54;;;;;;;6.43;2.63;;;9.70;99.90;;;;;;5089422;28;20032;-46
2021/11/01 23:46:19;;;;;;;5.55;2.70;;;9.70;99.90;;;;;;5089130;28;20032;-48
2021/11/01 23:48:45;;;;;;;4.97;2.20;;;9.70;99.90;;;;;;5088825;28;20109;-48
2021/11/01 23:51:12;;;;;;;7.07;2.58;;;9.70;99.90;;;;;;5089189;28;20039;-48
2021/11/01 23:53:48;;;;;;;11.02;2.78;;;9.60;99.90;;;;;;5089220;28;20273;-46
2021/11/01 23:56:15;;;;;;;9.80;2.75;;;9.60;99.90;;;;;;5088422;28;20103;-46
2021/11/01 23:58:43;;;;;;;8.75;2.83;;;9.60;99.90;;;;;;5079485;28;20016;-47
